METAR Data
IDs: Format: Raw Decoded Include TAF

Data at: 1036 UTC 26 Sep 2018

KHHG 261015Z AUTO 31008KT 270V340 10SM OVC011 17/17 A2995 RMK AO2 T01730166
KHHG 260955Z AUTO 28003KT 10SM OVC013 17/17 A2995 RMK AO2 LTG DSNT E T01720165
KHHG 260935Z AUTO 31004KT 10SM BKN015 OVC024 17/16 A2992 RMK AO2 T01700164
KHHG 260915Z AUTO 32010G14KT 270V340 10SM BKN022 OVC030 17/17 A2992 RMK AO2 T01720165
KHHG 260855Z AUTO 32007KT 10SM SCT010 SCT014 OVC021 18/17 A2991 RMK AO2 T01790171
KHHG 260835Z AUTO 29005KT 10SM SCT012 SCT016 OVC023 19/18 A2990 RMK AO2 T01850178
KHHG 260815Z AUTO 28005KT 10SM SCT010 BKN017 OVC090 19/18 A2990 RMK AO2 T01870180
KHHG 260755Z AUTO 28003KT 10SM SCT008 BKN018 OVC032 19/19 A2990 RMK AO2 T01910185
KHHG 260735Z AUTO 28004KT 10SM SCT010 BKN022 OVC032 19/19 A2991 RMK AO2 LTG DSNT E T01930186
KHHG 260715Z AUTO 29005KT 10SM SCT010 BKN021 OVC030 20/19 A2990 RMK AO2 T01950188
KHHG 260655Z AUTO 29005KT 10SM BKN007 OVC012 20/19 A2990 RMK AO2 T02000193
KHHG 260635Z AUTO 26007KT 7SM -RA BKN007 OVC013 20/20 A2990 RMK AO2 T02020195
KHHG 260615Z AUTO 24010KT 10SM -VCTSRA SCT007 OVC012 21/20 A2989 RMK AO2 LTG DSNT E T02060200
KHHG 260555Z AUTO 23003KT 10SM BKN012 BKN034 OVC090 21/20 A2988 RMK AO2 LTG DSNT E AND SE T02060200 10222 20203
KHHG 260535Z AUTO 23003KT 10SM -RA SCT012 BKN031 OVC090 21/20 A2988 RMK AO2 T02050198
KHHG 260515Z AUTO 25004KT 10SM -RA BKN010 BKN017 OVC025 21/21 A2990 RMK AO2 LTG DSNT NE AND SE T02130206
KHHG 260455Z AUTO 22004KT 10SM BKN010 BKN017 OVC023 21/21 A2989 RMK AO2 LTG DSNT NE AND E T02130206 402430200
KHHG 260435Z AUTO 25004KT 10SM OVC010 21/21 A2990 RMK AO2 T02130205
KHHG 260415Z AUTO 27006KT 10SM OVC012 21/21 A2991 RMK AO2 T02130206
KHHG 260355Z AUTO 23004KT 10SM BKN016 21/21 A2990 RMK AO2 LTG DSNT NE AND S T02130205
KHHG 260335Z AUTO 21004KT 10SM CLR 21/20 A2989 RMK AO2 T02100203
KHHG 260315Z AUTO 21004KT 10SM SCT110 21/21 A2990 RMK AO2 T02120205
KHHG 260255Z AUTO 21005KT 10SM SCT110 22/21 A2990 RMK AO2 T02150208
KHHG 260235Z AUTO 21005KT 10SM SCT075 SCT090 OVC110 22/21 A2990 RMK AO2 LTG DSNT N T02170210
KHHG 260215Z AUTO 21006KT 10SM SCT017 OVC110 22/22 A2990 RMK AO2 LTG DSNT W T02210215
KHHG 260155Z AUTO 20007KT 10SM SCT017 SCT100 SCT120 22/21 A2991 RMK AO2 LTG DSNT W AND NW T02200213
KHHG 260135Z AUTO 21006KT 10SM BKN100 22/21 A2989 RMK AO2 LTG DSNT SE T02210214
KHHG 260115Z AUTO 18008KT 10SM VCTS OVC110 22/21 A2988 RMK AO2 LTG DSNT S T02200213
KHHG 260055Z AUTO 18006KT 10SM TS OVC110 22/21 A2986 RMK AO2 LTG DSNT S T02180211
KHHG 260035Z AUTO 19003KT 10SM OVC110 22/21 A2987 RMK AO2 LTG DSNT S AND SW T02190211
KHHG 260015Z AUTO 19004KT 10SM SCT020 SCT090 BKN110 22/21 A2989 RMK AO2 LTG DSNT NE AND SW T02210213
KHHG 252355Z AUTO 22004KT 10SM SCT018 BKN090 22/21 A2989 RMK AO2 LTG DSNT NE T02200213 10243 20202
KHHG 252335Z AUTO 23004KT 10SM SCT018 BKN090 22/22 A2990 RMK AO2 T02210215
KHHG 252315Z AUTO 23003KT 10SM BKN016 BKN090 22/22 A2989 RMK AO2 T02220215
KHHG 252255Z AUTO 24005KT 10SM SCT016 SCT045 SCT055 22/22 A2989 RMK AO2 T02230216
KHHG 252235Z AUTO 22006KT 10SM SCT016 BKN042 OVC048 23/22 A2988 RMK AO2 T02250218
KHHG 252215Z AUTO 22006KT 10SM SCT008 BKN030 OVC036 22/22 A2986 RMK AO2 T02230216
KHHG 252155Z AUTO 23006KT 3SM -RA SCT006 BKN010 OVC022 22/21 A2986 RMK AO2 LTG DSNT SE T02200212
KHHG 252135Z AUTO 17004KT 10SM -RA BKN014 OVC021 23/22 A2986 RMK AO2 T02260220
KHHG 252115Z AUTO 19006KT 10SM BKN016 BKN022 OVC026 23/21 A2986 RMK AO2 T02280212
KHHG 252055Z AUTO 19003KT 10SM SCT016 SCT022 OVC028 23/21 A2986 RMK AO2 T02310211
KHHG 252035Z AUTO 20004KT 10SM SCT023 BKN028 OVC047 23/20 A2987 RMK AO2 T02300204
KHHG 252015Z AUTO 20008KT 10SM BKN019 BKN044 OVC050 23/20 A2988 RMK AO2 T02320204
KHHG 251955Z AUTO 20006KT 10SM SCT019 24/20 A2989 RMK AO2 LTG DSNT S T02350202
KHHG 251935Z AUTO 24006KT 10SM SCT090 24/21 A2989 RMK AO2 T02400211
KHHG 251915Z AUTO 22004KT 10SM SCT009 SCT034 SCT041 23/22 A2990 RMK AO2 T02300215
KHHG 251855Z AUTO 21007KT 10SM SCT009 SCT041 SCT050 22/21 A2992 RMK AO2 LTG DSNT E T02230214
KHHG 251835Z AUTO 21004KT 10SM SCT050 SCT110 22/21 A2994 RMK AO2 T02160210
KHHG 251815Z AUTO 22004KT 10SM SCT029 SCT036 SCT055 21/20 A2996 RMK AO2 LTG DSNT E T02100202
KHHG 251755Z AUTO 18007KT 10SM -VCTSRA SCT031 BKN041 BKN070 20/20 A2998 RMK AO2 T02020195 10223 20200
KHHG 251735Z AUTO 25005KT 10SM -VCTSRA SCT045 SCT060 BKN120 20/19 A2997 RMK AO2 LTG DSNT SW THRU N T02000193
KHHG 251715Z AUTO 19005KT 10SM TSRA SCT014 BKN055 OVC095 20/19 A2997 RMK AO2 LTG DSNT SW AND NW T02010194
KHHG 251655Z AUTO 21011G18KT 5SM TSRA BKN008 BKN030 OVC060 21/21 A2999 RMK AO2 LTG DSNT ALQS T02120205
KHHG 251635Z AUTO 21006KT 7SM -TSRA OVC008 22/21 A2999 RMK AO2 LTG DSNT SE THRU W T02150208
KHHG 251615Z AUTO 22006KT 10SM OVC008 22/21 A2998 RMK AO2 LTG DSNT SW AND W T02180210
KHHG 251555Z AUTO 19007KT 10SM VCTS OVC010 22/21 A2996 RMK AO2 LTG DSNT E AND SW T02190211
KHHG 251535Z AUTO 21006KT 10SM OVC010 22/21 A2997 RMK AO2 LTG DSNT SW T02200214
KHHG 251515Z AUTO 21007KT 10SM BKN012 BKN026 22/22 A2997 RMK AO2 LTG DSNT SW T02210215
KHHG 251455Z AUTO 22007KT 10SM SCT012 SCT026 22/22 A2997 RMK AO2 LTG DSNT E AND SW T02220215
KHHG 251435Z AUTO 24005KT 10SM SCT070 SCT085 SCT095 22/21 A2997 RMK AO2 T02210214
KHHG 251415Z AUTO 22007KT 10SM SCT005 SCT013 BKN095 21/21 A2997 RMK AO2 LTG DSNT SW T02140206
KHHG 251355Z AUTO 21005KT 10SM VCTS SCT006 SCT045 BKN095 21/20 A2997 RMK AO2 LTG DSNT E T02060200
KHHG 251335Z AUTO 19004KT 10SM -TSRA SCT007 BKN070 OVC100 21/20 A2997 RMK AO2 LTG DSNT E T02050197
KHHG 251315Z AUTO 20006KT 10SM VCTSRA SCT007 BKN023 OVC110 21/20 A2997 RMK AO2 LTG DSNT SE AND W T02050198
KHHG 251255Z AUTO 21007KT 10SM -RA SCT007 BKN024 OVC031 20/20 A2998 RMK AO2 T02030196
KHHG 251235Z AUTO 18004KT 10SM VCTS SCT025 BKN035 OVC046 20/20 A2996 RMK AO2 LTG DSNT SE AND S T02020195
KHHG 251215Z AUTO 23007KT 10SM VCTSRA SCT009 BKN035 BKN048 20/20 A2997 RMK AO2 LTG DSNT SE THRU SW T02020195
KHHG 251155Z AUTO 21011G15KT 10SM -RA BKN009 BKN018 OVC048 21/20 A2997 RMK AO2 LTG DSNT E AND SE T02070200 10210 20202
KHHG 251135Z AUTO 20005KT 10SM BKN009 OVC012 21/20 A2996 RMK AO2 LTG DSNT E T02060200
KHHG 251115Z AUTO 20004KT 10SM -VCTSDZ BKN014 BKN032 BKN055 21/20 A2997 RMK AO2 LTG DSNT E THRU S T02050198
KHHG 251055Z AUTO 19004KT 10SM -VCTSRA SCT019 BKN060 OVC095 21/20 A2997 RMK AO2 LTG DSNT ALQS T02060199
KHHG 251035Z AUTO 17005KT 7SM TSRA SCT008 SCT044 OVC095 21/20 A2997 RMK AO2 LTG DSNT E THRU SW T02070200
KHHG 251015Z AUTO 21003KT 4SM TSRA OVC006 21/20 A2997 RMK AO2 LTG DSNT ALQS T02100202
KHHG 250955Z AUTO 21006KT 7SM TS OVC008 21/20 A2996 RMK AO2 LTG DSNT ALQS T02100203
KHHG 250935Z AUTO 21006KT 7SM TS OVC008 21/20 A2995 RMK AO2 LTG DSNT S THRU NW T02090202
KHHG 250915Z AUTO 19006KT 7SM VCTS OVC008 21/20 A2996 RMK AO2 LTG DSNT S THRU W T02070200
KHHG 250855Z AUTO 18006KT 7SM VCTS OVC008 21/20 A2995 RMK AO2 LTG DSNT SW AND W T02070200
KHHG 250835Z AUTO 19004KT 7SM VCTS OVC008 21/20 A2997 RMK AO2 LTG DSNT SW AND W T02060200
KHHG 250815Z AUTO 00000KT 7SM OVC008 21/20 A2996 RMK AO2 LTG DSNT SW AND W T02060200
KHHG 250755Z AUTO 20004KT 7SM OVC006 21/20 A2996 RMK AO2 LTG DSNT SW AND W T02050199
KHHG 250735Z AUTO 20004KT 7SM OVC004 21/20 A2997 RMK AO2 LTG DSNT SW T02050198
KHHG 250715Z AUTO 19005KT 5SM BR OVC006 21/20 A2997 RMK AO2 LTG DSNT SW AND W T02050197
KHHG 250655Z AUTO 20003KT 5SM BR BKN006 BKN013 OVC026 20/20 A2997 RMK AO2 LTG DSNT SW T02030196
KHHG 250635Z AUTO 19004KT 7SM SCT015 BKN026 OVC043 20/20 A2998 RMK AO2 LTG DSNT SW T02030196
KHHG 250615Z AUTO 19003KT 7SM BKN026 BKN033 OVC043 20/20 A2997 RMK AO2 LTG DSNT SW T02020195
KHHG 250555Z AUTO 20004KT 10SM BKN007 BKN026 OVC043 20/20 A2998 RMK AO2 LTG DSNT SW T02020195 10202 20195
KHHG 250535Z AUTO 19003KT 10SM OVC007 20/20 A2998 RMK AO2 T02020195
KHHG 250515Z AUTO 19004KT 10SM BKN007 OVC011 20/20 A2997 RMK AO2 T02010195
KHHG 250455Z AUTO 19003KT 10SM SCT005 OVC011 20/19 A2998 RMK AO2 T02000192 402030116
KHHG 250435Z AUTO 18004KT 10SM OVC005 20/19 A2998 RMK AO2 T01980191
KHHG 250415Z AUTO 17004KT 4SM BR OVC003 20/19 A2998 RMK AO2 T01960190
KHHG 250355Z AUTO 17004KT 3SM -DZ OVC005 20/19 A2998 RMK AO2 T01950188
KHHG 250335Z AUTO 16004KT 7SM RA OVC005 20/19 A2998 RMK AO2 T01970190
KHHG 250315Z AUTO 15003KT 10SM OVC007 20/19 A2998 RMK AO2 T01970190
KHHG 250255Z AUTO 16004KT 10SM OVC011 20/19 A2998 RMK AO2 T01980191
KHHG 250235Z AUTO 16006KT 10SM OVC011 20/19 A2998 RMK AO2 T02000192
KHHG 250215Z AUTO 14006KT 10SM OVC013 20/19 A2998 RMK AO2 T02000192
KHHG 250155Z AUTO 15006KT 10SM OVC012 20/19 A2998 RMK AO2 T01980191
KHHG 250135Z AUTO 15005KT 10SM OVC010 20/19 A2998 RMK AO2 T02000192
KHHG 250115Z AUTO 14004KT 7SM OVC010 20/19 A2998 RMK AO2 T01980191
KHHG 250055Z AUTO 13004KT 10SM OVC012 20/19 A2997 RMK AO2 T01980191
KHHG 250035Z AUTO 13005KT 10SM BKN016 OVC022 20/19 A2997 RMK AO2 T02000192
KHHG 250015Z AUTO 12005KT 10SM BKN018 OVC026 20/19 A2997 RMK AO2 T02000192
KHHG 242355Z AUTO 12005KT 7SM SCT020 OVC026 20/19 A2997 RMK AO2 T02000192 10203 20192
KHHG 242335Z AUTO 13005KT 7SM BKN024 OVC028 20/19 A2998 RMK AO2 T02000193
KHHG 242315Z AUTO 13004KT 5SM -DZ SCT014 BKN025 OVC032 20/19 A2998 RMK AO2 T02000192
KHHG 242255Z AUTO 13003KT 5SM BR SCT006 OVC014 20/19 A2998 RMK AO2 T02000192